Time;durP1;ratioP1;P1;durP2;ratioP2;P2;SDS_P1;SDS_P2;PMS_P1;PMS_P2;Temp;Humidity;BMP_temperature;BMP_pressure;BME280_temperature;BME280_humidity;BME280_pressure;Samples;Min_cycle;Max_cycle;Signal;HPM_P1;HPM_P2
2024/02/13 00:00:18;;;;;;;6.80;2.20;;;;;;;5.21;100.00;100493.69;5033394;28;20877;-70
2024/02/13 00:02:45;;;;;;;7.43;4.70;;;;;;;5.24;100.00;100501.22;5033605;28;20467;-70
2024/02/13 00:05:11;;;;;;;6.57;3.43;;;;;;;5.24;100.00;100497.72;5033342;28;20534;-70
2024/02/13 00:07:39;;;;;;;8.77;4.10;;;;;;;5.21;100.00;100501.75;5033553;28;20447;-70
2024/02/13 00:10:10;;;;;;;4.37;2.60;;;;;;;5.24;100.00;100506.59;5047307;23;20538;-63
2024/02/13 00:12:37;;;;;;;7.90;4.20;;;;;;;5.22;100.00;100503.38;5033199;28;20455;-63
2024/02/13 00:15:04;;;;;;;3.37;2.23;;;;;;;5.22;100.00;100519.50;5033491;28;20872;-63
2024/02/13 00:17:31;;;;;;;9.90;4.40;;;;;;;5.22;100.00;100519.50;5033678;28;20477;-63
2024/02/13 00:19:59;;;;;;;6.03;2.67;;;;;;;5.27;100.00;100522.19;5033396;28;20518;-63
2024/02/13 00:22:26;;;;;;;6.80;3.07;;;;;;;5.29;100.00;100524.59;5033461;28;20458;-63
2024/02/13 00:24:53;;;;;;;5.63;3.07;;;;;;;5.28;100.00;100522.97;5033174;28;20443;-63
2024/02/13 00:27:21;;;;;;;6.00;2.53;;;;;;;5.34;100.00;100529.97;5033486;28;20526;-63
2024/02/13 00:29:49;;;;;;;7.20;3.63;;;;;;;5.37;100.00;100528.63;5033883;28;20522;-63
2024/02/13 00:32:17;;;;;;;8.30;3.10;;;;;;;5.40;100.00;100530.75;5033426;28;20459;-63
2024/02/13 00:34:44;;;;;;;9.63;3.13;;;;;;;5.39;100.00;100529.16;5033272;28;20577;-64
2024/02/13 00:37:11;;;;;;;5.23;3.00;;;;;;;5.36;100.00;100540.41;5033300;28;20474;-63
2024/02/13 00:39:38;;;;;;;4.03;1.97;;;;;;;5.38;100.00;100546.34;5033027;28;20561;-63
2024/02/13 00:42:05;;;;;;;6.23;3.53;;;;;;;5.35;100.00;100544.19;5032689;28;20975;-63
2024/02/13 00:44:35;;;;;;;10.43;2.70;;;;;;;5.32;100.00;100550.91;5033354;28;20522;-63
2024/02/13 00:47:02;;;;;;;4.90;2.20;;;;;;;5.29;100.00;100548.75;5036767;28;20451;-63
2024/02/13 00:49:29;;;;;;;7.27;3.50;;;;;;;5.27;100.00;100557.09;5036965;28;20453;-63
2024/02/13 00:51:56;;;;;;;7.90;2.83;;;;;;;5.30;100.00;100559.22;5036427;28;20459;-63
2024/02/13 00:54:25;;;;;;;3.50;1.57;;;;;;;5.34;100.00;100566.75;5037116;28;20485;-63
2024/02/13 00:56:52;;;;;;;5.33;3.43;;;;;;;5.30;100.00;100564.59;5036682;28;20857;-63
2024/02/13 00:59:19;;;;;;;5.00;2.60;;;;;;;5.32;100.00;100564.34;5036437;28;20447;-64
2024/02/13 01:01:47;;;;;;;10.40;2.70;;;;;;;5.27;100.00;100567.03;5036283;28;20463;-63
2024/02/13 01:04:14;;;;;;;3.20;1.83;;;;;;;5.26;100.00;100571.56;5036100;28;20445;-63
2024/02/13 01:06:40;;;;;;;4.13;1.93;;;;;;;5.26;100.00;100585.00;5036691;28;20439;-64
2024/02/13 01:09:07;;;;;;;4.90;2.30;;;;;;;5.24;100.00;100578.28;5036026;28;20947;-64
2024/02/13 01:11:35;;;;;;;4.53;2.33;;;;;;;5.22;100.00;100583.09;5036000;28;20479;-63
2024/02/13 01:14:02;;;;;;;5.33;2.03;;;;;;;5.26;100.00;100589.56;5036380;28;20486;-63
2024/02/13 01:16:29;;;;;;;4.13;2.63;;;;;;;5.25;100.00;100588.75;5036203;28;20477;-63
2024/02/13 01:18:58;;;;;;;4.00;1.50;;;;;;;5.30;100.00;100593.31;5035866;28;20529;-63
2024/02/13 01:21:25;;;;;;;4.33;1.57;;;;;;;5.38;100.00;100597.38;5036300;28;20530;-63
2024/02/13 01:23:51;;;;;;;4.93;2.00;;;;;;;5.45;100.00;100609.50;5036088;28;20439;-64
2024/02/13 01:26:19;;;;;;;4.70;2.00;;;;;;;5.45;100.00;100603.31;5035605;28;20879;-63
2024/02/13 01:28:46;;;;;;;3.73;2.20;;;;;;;5.45;100.00;100614.06;5036262;28;20439;-63
2024/02/13 01:31:12;;;;;;;3.30;1.60;;;;;;;5.45;100.00;100620.22;5035867;28;20471;-64
2024/02/13 01:33:39;;;;;;;3.63;1.77;;;;;;;5.51;100.00;100612.97;5036368;28;20578;-63
2024/02/13 01:36:08;;;;;;;3.60;1.73;;;;;;;5.52;100.00;100617.28;5035802;28;20447;-63
2024/02/13 01:38:35;;;;;;;7.23;3.33;;;;;;;5.55;100.00;100614.06;5035692;28;20836;-63
2024/02/13 01:41:02;;;;;;;4.27;2.77;;;;;;;5.60;100.00;100616.75;5035291;28;20474;-63
2024/02/13 01:43:31;;;;;;;4.27;2.93;;;;;;;5.61;100.00;100623.72;5035821;28;20478;-63
2024/02/13 01:45:59;;;;;;;2.80;1.47;;;;;;;5.59;100.00;100623.22;5035554;28;20450;-63
2024/02/13 01:48:26;;;;;;;3.67;1.60;;;;;;;5.62;100.00;100625.34;5035468;28;20890;-63
2024/02/13 01:50:56;;;;;;;5.63;3.00;;;;;;;5.60;100.00;100626.69;5035756;28;20513;-63
2024/02/13 01:53:27;;;;;;;4.50;2.60;;;;;;;5.65;100.00;100637.44;5035027;28;20523;-63
2024/02/13 01:55:54;;;;;;;5.00;2.13;;;;;;;5.64;100.00;100633.97;5035381;28;20433;-63
2024/02/13 01:58:22;;;;;;;2.80;1.80;;;;;;;5.65;100.00;100630.19;5034603;28;20439;-63
2024/02/13 02:00:52;;;;;;;4.33;1.97;;;;;;;5.61;100.00;100634.47;5035226;28;20823;-63
2024/02/13 02:03:20;;;;;;;2.77;1.43;;;;;;;5.65;100.00;100643.63;5035588;28;20463;-64
2024/02/13 02:05:46;;;;;;;8.07;3.43;;;;;;;5.67;100.00;100646.88;5034949;28;20475;-63
2024/02/13 02:08:13;;;;;;;6.87;2.27;;;;;;;5.68;100.00;100645.78;5035498;28;20478;-63
2024/02/13 02:10:44;;;;;;;4.43;2.30;;;;;;;5.64;100.00;100643.91;5034811;28;20447;-63
2024/02/13 02:13:12;;;;;;;5.97;3.67;;;;;;;5.66;100.00;100653.28;5035563;28;20490;-62
2024/02/13 02:15:41;;;;;;;5.40;2.70;;;;;;;5.67;100.00;100651.44;5035321;28;20443;-62
2024/02/13 02:18:09;;;;;;;5.43;2.23;;;;;;;5.65;100.00;100661.63;5035117;28;20450;-63
2024/02/13 02:20:37;;;;;;;3.60;2.40;;;;;;;5.65;100.00;100658.94;5035048;28;20451;-63
2024/02/13 02:23:04;;;;;;;6.23;2.17;;;;;;;5.66;100.00;100665.91;5034507;28;20458;-63
2024/02/13 02:25:32;;;;;;;3.50;1.53;;;;;;;5.71;100.00;100674.81;5035166;28;20538;-63
2024/02/13 02:27:58;;;;;;;5.03;2.03;;;;;;;5.66;100.00;100668.59;5035095;28;20519;-63
2024/02/13 02:30:25;;;;;;;7.30;2.60;;;;;;;5.70;100.00;100673.19;5034790;28;20435;-63
2024/02/13 02:32:51;;;;;;;4.00;1.67;;;;;;;5.65;100.00;100675.88;5034657;28;20467;-63
2024/02/13 02:35:18;;;;;;;3.27;2.10;;;;;;;5.66;100.00;100682.84;5034530;28;20536;-63
2024/02/13 02:37:48;;;;;;;3.70;1.67;;;;;;;5.66;100.00;100688.22;5034802;28;20439;-63
2024/02/13 02:40:16;;;;;;;6.23;3.50;;;;;;;5.68;100.00;100688.78;5035041;28;20447;-63
2024/02/13 02:42:46;;;;;;;5.63;2.07;;;;;;;5.66;100.00;100690.91;5034388;28;20470;-63
2024/02/13 02:45:14;;;;;;;5.33;2.53;;;;;;;5.63;100.00;100694.16;5034483;28;20938;-63
2024/02/13 02:47:41;;;;;;;4.00;1.70;;;;;;;5.56;100.00;100694.38;5034460;28;20530;-63
2024/02/13 02:50:10;;;;;;;3.70;1.80;;;;;;;5.60;100.00;100701.94;5034496;28;20467;-63
2024/02/13 02:52:37;;;;;;;4.83;2.60;;;;;;;5.61;100.00;100707.03;5034489;28;20463;-63
2024/02/13 02:55:05;;;;;;;7.43;2.33;;;;;;;5.57;100.00;100711.31;5034666;28;20491;-63
2024/02/13 02:57:31;;;;;;;4.37;2.20;;;;;;;5.54;100.00;100726.09;5033890;28;21026;-63
2024/02/13 02:59:59;;;;;;;3.83;1.87;;;;;;;5.52;100.00;100722.03;5034171;28;20853;-63
2024/02/13 03:02:26;;;;;;;4.23;1.67;;;;;;;5.53;100.00;100729.03;5034082;28;20545;-63
2024/02/13 03:04:52;;;;;;;4.17;1.23;;;;;;;5.54;100.00;100731.47;5033700;28;20947;-63
2024/02/13 03:07:19;;;;;;;4.00;2.00;;;;;;;5.56;100.00;100729.31;5033750;28;20439;-63
2024/02/13 03:09:46;;;;;;;10.27;3.50;;;;;;;5.54;100.00;100731.47;5033627;28;20435;-63
2024/02/13 03:12:12;;;;;;;4.27;1.67;;;;;;;5.55;100.00;100733.06;5033537;28;20520;-63
2024/02/13 03:14:39;;;;;;;3.47;1.97;;;;;;;5.53;100.00;100747.84;5033808;28;20538;-64
2024/02/13 03:17:11;;;;;;;4.17;2.10;;;;;;;5.55;100.00;100745.72;5034075;28;20442;-63
2024/02/13 03:19:38;;;;;;;2.60;1.17;;;;;;;5.53;100.00;100745.16;5033649;28;20431;-63
2024/02/13 03:22:04;;;;;;;3.30;1.73;;;;;;;5.56;100.00;100747.31;5034217;28;20455;-63
2024/02/13 03:24:31;;;;;;;6.43;2.63;;;;;;;5.59;100.00;100759.44;5033761;28;20442;-63
2024/02/13 03:26:58;;;;;;;4.80;2.20;;;;;;;5.56;100.00;100758.06;5033692;28;20482;-63
2024/02/13 03:29:24;;;;;;;5.13;2.73;;;;;;;5.49;100.00;100762.84;5033987;28;20443;-63
2024/02/13 03:31:51;;;;;;;2.10;1.00;;;;;;;5.49;100.00;100766.38;5033299;28;20459;-63
2024/02/13 03:34:19;;;;;;;3.63;1.90;;;;;;;5.53;100.00;100772.00;5033998;28;20570;-63
2024/02/13 03:36:46;;;;;;;4.60;1.50;;;;;;;5.52;100.00;100779.25;5033581;28;20526;-63
2024/02/13 03:39:12;;;;;;;12.80;2.40;;;;;;;5.55;100.00;100786.00;5033313;28;20871;-63
2024/02/13 03:41:41;;;;;;;9.30;1.70;;;;;;;5.60;100.00;100786.03;5033476;28;20439;-63
2024/02/13 03:44:11;;;;;;;3.17;1.53;;;;;;;5.57;100.00;100789.22;5033729;28;20435;-63
2024/02/13 03:46:37;;;;;;;4.53;1.53;;;;;;;5.60;100.00;100794.09;5033202;28;20943;-62
2024/02/13 03:49:04;;;;;;;3.23;1.80;;;;;;;5.62;100.00;100794.63;5033760;28;20530;-63
2024/02/13 03:51:32;;;;;;;5.00;1.20;;;;;;;5.59;100.00;100807.78;5033071;28;20447;-63
2024/02/13 03:53:58;;;;;;;3.13;1.47;;;;;;;5.61;100.00;100806.44;5033519;28;20443;-63
2024/02/13 03:56:26;;;;;;;3.27;1.87;;;;;;;5.67;100.00;100812.66;5033196;28;20471;-63
2024/02/13 03:58:53;;;;;;;3.60;1.23;;;;;;;5.67;100.00;100816.16;5033511;28;20641;-63
2024/02/13 04:01:19;;;;;;;2.60;1.13;;;;;;;5.72;100.00;100818.88;5033579;28;20947;-63
2024/02/13 04:03:46;;;;;;;5.20;1.80;;;;;;;5.73;100.00;100827.72;5033792;28;20463;-63
2024/02/13 04:06:13;;;;;;;3.00;1.70;;;;;;;5.74;100.00;100838.19;5033336;28;20997;-63
2024/02/13 04:08:44;;;;;;;3.73;0.90;;;;;;;5.76;100.00;100836.09;5033408;28;20443;-63
2024/02/13 04:11:10;;;;;;;2.07;0.73;;;;;;;5.74;100.00;100837.41;5033270;28;20553;-62
2024/02/13 04:13:37;;;;;;;2.67;1.20;;;;;;;5.78;100.00;100844.69;5033176;28;20463;-62
2024/02/13 04:16:05;;;;;;;3.33;1.53;;;;;;;5.77;100.00;100843.06;5033158;28;20485;-63
2024/02/13 04:18:32;;;;;;;2.70;0.90;;;;;;;5.75;100.00;100844.38;5033529;28;20493;-63
2024/02/13 04:20:58;;;;;;;2.80;1.60;;;;;;;5.75;100.00;100845.19;5035504;28;20445;-63
2024/02/13 04:23:25;;;;;;;2.67;1.67;;;;;;;5.73;100.00;100847.34;5036982;28;20455;-63
2024/02/13 04:25:53;;;;;;;4.70;1.37;;;;;;;5.69;100.00;100862.38;5037047;28;20442;-64
2024/02/13 04:28:22;;;;;;;2.60;1.00;;;;;;;5.61;100.00;100852.13;5036984;28;20465;-65
2024/02/13 04:30:49;;;;;;;4.80;1.17;;;;;;;5.54;100.00;100852.38;5036982;28;20911;-63
2024/02/13 04:33:16;;;;;;;2.77;0.97;;;;;;;5.53;100.00;100857.97;5036546;28;20490;-63
2024/02/13 04:35:43;;;;;;;2.50;1.13;;;;;;;5.50;100.00;100861.22;5036840;28;20519;-64
2024/02/13 04:38:09;;;;;;;1.70;0.60;;;;;;;5.49;100.00;100854.19;5037194;28;20428;-63
2024/02/13 04:40:36;;;;;;;2.43;0.87;;;;;;;5.47;100.00;100865.22;5036763;28;20439;-63
2024/02/13 04:43:06;;;;;;;3.33;1.20;;;;;;;5.43;100.00;100868.69;5036552;28;20459;-64
2024/02/13 04:45:33;;;;;;;4.33;2.17;;;;;;;5.47;100.00;100865.22;5037005;28;20428;-64
2024/02/13 04:48:00;;;;;;;2.23;0.83;;;;;;;5.44;100.00;100881.03;5037255;28;20439;-64
2024/02/13 04:50:27;;;;;;;3.30;0.87;;;;;;;5.39;100.00;100876.44;5036637;28;20435;-64
2024/02/13 04:52:55;;;;;;;2.40;1.10;;;;;;;5.39;100.00;100881.00;5036812;28;20454;-64
2024/02/13 04:55:22;;;;;;;1.90;0.87;;;;;;;5.29;100.00;100874.50;5036881;28;20483;-64
2024/02/13 04:57:49;;;;;;;2.37;1.13;;;;;;;5.24;100.00;100871.78;5036779;28;20540;-63
2024/02/13 05:00:24;;;;;;;3.60;1.73;;;;;;;5.19;100.00;100870.94;5036429;28;20478;-63
2024/02/13 05:03:01;;;;;;;2.70;1.07;;;;;;;5.13;100.00;100875.44;5036648;28;20494;-63
2024/02/13 05:08:11;;;;;;;2.20;1.20;;;;;;;5.00;100.00;100875.88;5036035;28;20426;-63
2024/02/13 05:10:38;;;;;;;2.77;1.33;;;;;;;4.97;100.00;100876.41;5035797;28;20482;-63
2024/02/13 05:13:05;;;;;;;2.17;1.27;;;;;;;4.93;100.00;100886.84;5036302;28;20881;-63
2024/02/13 05:15:33;;;;;;;2.23;0.80;;;;;;;4.84;100.00;100882.22;5036061;28;20578;-63
2024/02/13 05:17:59;;;;;;;1.77;0.47;;;;;;;4.72;100.00;100885.88;5036075;28;20447;-63
2024/02/13 05:20:26;;;;;;;3.60;1.10;;;;;;;4.67;100.00;100893.06;5036013;28;20821;-63
2024/02/13 05:22:53;;;;;;;2.10;1.00;;;;;;;4.58;100.00;100899.94;5035786;28;20481;-63
2024/02/13 05:25:20;;;;;;;2.53;0.83;;;;;;;4.52;100.00;100899.91;5035507;28;20920;-63
2024/02/13 05:27:48;;;;;;;1.97;0.80;;;;;;;4.51;100.00;100906.31;5036262;28;20534;-63
2024/02/13 05:30:15;;;;;;;1.73;0.63;;;;;;;4.54;100.00;100908.50;5036120;28;20443;-63
2024/02/13 05:32:43;;;;;;;5.70;2.53;;;;;;;4.61;100.00;100907.50;5035764;28;20517;-63
2024/02/13 05:35:10;;;;;;;3.00;1.40;;;;;;;4.68;100.00;100921.50;5035640;28;20485;-63
2024/02/13 05:37:37;;;;;;;2.03;0.83;;;;;;;4.78;100.00;100921.59;5035824;28;20474;-63
2024/02/13 05:40:05;;;;;;;6.53;1.63;;;;;;;4.85;100.00;100919.53;5036207;28;20459;-63
2024/02/13 05:42:31;;;;;;;4.37;1.33;;;;;;;4.88;100.00;100912.84;5035404;28;20463;-63
2024/02/13 05:44:58;;;;;;;2.90;1.10;;;;;;;4.93;100.00;100912.88;5035552;28;20530;-63
2024/02/13 05:47:31;;;;;;;2.77;1.03;;;;;;;4.92;100.00;100925.50;5035520;28;20529;-63
2024/02/13 05:49:59;;;;;;;2.00;0.83;;;;;;;5.03;100.00;100926.38;5035914;28;20440;-63
2024/02/13 05:52:26;;;;;;;4.20;2.00;;;;;;;5.05;100.00;100926.97;5035014;28;20983;-63
2024/02/13 05:54:52;;;;;;;4.80;2.30;;;;;;;5.08;100.00;100923.75;5034907;28;20479;-63
2024/02/13 05:57:19;;;;;;;3.30;1.00;;;;;;;5.15;100.00;100928.91;5035342;28;20451;-63
2024/02/13 05:59:47;;;;;;;2.50;1.17;;;;;;;5.20;100.00;100942.38;5035333;28;20446;-63
2024/02/13 06:02:14;;;;;;;5.07;1.80;;;;;;;5.22;100.00;100934.84;5035406;28;20471;-63
2024/02/13 06:04:40;;;;;;;3.80;1.60;;;;;;;5.20;100.00;100929.75;5035224;28;20447;-63
2024/02/13 06:07:09;;;;;;;7.03;0.70;;;;;;;5.17;100.00;100942.88;5035245;28;20435;-63
2024/02/13 06:09:38;;;;;;;3.17;1.27;;;;;;;5.12;100.00;100946.34;5035359;28;20450;-63
2024/02/13 06:12:06;;;;;;;4.40;1.40;;;;;;;5.13;100.00;100945.25;5064509;22;20985;-71
2024/02/13 06:14:33;;;;;;;3.40;1.53;;;;;;;5.14;100.00;100943.41;5055199;28;20438;-70
2024/02/13 06:17:00;;;;;;;5.60;1.53;;;;;;;5.16;100.00;100963.56;5055258;28;20521;-70
2024/02/13 06:19:27;;;;;;;3.10;1.47;;;;;;;5.17;100.00;100951.75;5054841;28;20429;-70
2024/02/13 06:21:53;;;;;;;3.23;1.57;;;;;;;5.16;100.00;100954.69;5054527;28;20840;-68
2024/02/13 06:24:23;;;;;;;3.03;1.40;;;;;;;5.14;100.00;100964.91;5054771;28;20533;-74
2024/02/13 06:26:50;;;;;;;2.37;1.00;;;;;;;5.14;100.00;100956.84;5054685;28;20442;-70
2024/02/13 06:29:17;;;;;;;10.30;2.77;;;;;;;5.13;100.00;100972.13;5054626;28;20477;-71
2024/02/13 06:31:44;;;;;;;3.13;1.60;;;;;;;5.09;100.00;100980.94;5054545;28;20462;-71
2024/02/13 06:34:11;;;;;;;4.10;2.10;;;;;;;5.14;100.00;100981.81;5054892;28;20780;-71
2024/02/13 06:36:38;;;;;;;2.53;1.23;;;;;;;5.15;100.00;100980.75;5054272;28;21001;-71
2024/02/13 06:39:05;;;;;;;3.60;1.43;;;;;;;5.13;100.00;100988.22;5054438;28;20450;-71
2024/02/13 06:41:33;;;;;;;3.73;2.00;;;;;;;5.15;100.00;100986.09;5054372;28;20528;-71
2024/02/13 06:44:00;;;;;;;3.70;1.40;;;;;;;5.18;100.00;100985.59;5053945;28;20438;-71
2024/02/13 06:46:27;;;;;;;4.93;2.00;;;;;;;5.20;100.00;100982.66;5054633;28;20446;-71
2024/02/13 06:48:53;;;;;;;2.53;1.27;;;;;;;5.16;100.00;100992.28;5054284;28;20537;-71
2024/02/13 06:51:20;;;;;;;3.30;1.60;;;;;;;5.09;100.00;100987.13;5054618;28;20446;-71
2024/02/13 06:53:46;;;;;;;2.73;1.00;;;;;;;5.02;100.00;101006.13;5054198;28;20993;-71
2024/02/13 06:56:14;;;;;;;2.83;1.27;;;;;;;4.94;100.00;101003.88;5053731;28;21015;-70
2024/02/13 06:58:42;;;;;;;4.03;1.67;;;;;;;4.90;100.00;101016.19;5054117;28;20478;-70
2024/02/13 07:01:12;;;;;;;5.17;2.07;;;;;;;4.93;100.00;101020.25;5054108;28;20442;-70
2024/02/13 07:03:39;;;;;;;7.90;1.63;;;;;;;4.96;100.00;101011.72;5054194;28;20469;-71
2024/02/13 07:06:07;;;;;;;6.03;2.07;;;;;;;4.99;100.00;101019.22;5054193;28;20533;-68
2024/02/13 07:08:34;;;;;;;2.67;0.87;;;;;;;5.05;100.00;101018.25;5054260;28;20472;-69
2024/02/13 07:11:00;;;;;;;4.50;1.93;;;;;;;5.06;100.00;101028.72;5053736;28;20478;-70
2024/02/13 07:13:28;;;;;;;5.67;2.37;;;;;;;5.06;100.00;101033.28;5054416;28;20549;-72
2024/02/13 07:15:56;;;;;;;3.30;1.80;;;;;;;5.13;100.00;101027.69;5054453;28;20484;-70
2024/02/13 07:18:22;;;;;;;3.00;1.37;;;;;;;5.13;100.00;101036.56;5054349;28;20981;-70
2024/02/13 07:20:49;;;;;;;4.40;1.73;;;;;;;5.16;100.00;101029.88;5054110;28;20447;-71
2024/02/13 07:23:15;;;;;;;3.30;2.10;;;;;;;5.17;100.00;101043.03;5053569;28;21020;-71
2024/02/13 07:25:42;;;;;;;3.30;1.60;;;;;;;5.19;100.00;101042.81;5053984;28;20430;-70
2024/02/13 07:28:09;;;;;;;4.03;2.23;;;;;;;5.20;100.00;101047.91;5054218;28;20511;-70
2024/02/13 07:30:36;;;;;;;3.87;1.80;;;;;;;5.22;100.00;101044.97;5054299;28;20524;-70
2024/02/13 07:33:04;;;;;;;2.93;1.30;;;;;;;5.18;100.00;101055.41;5053309;28;20490;-70
2024/02/13 07:35:31;;;;;;;2.40;1.00;;;;;;;5.24;100.00;101059.78;5053832;28;20493;-70
2024/02/13 07:37:58;;;;;;;4.10;1.97;;;;;;;5.27;100.00;101061.16;5053443;28;20529;-70
2024/02/13 07:40:25;;;;;;;2.03;1.03;;;;;;;5.26;100.00;101063.00;5053726;28;20443;-68
2024/02/13 07:42:51;;;;;;;2.77;1.60;;;;;;;5.26;100.00;101063.00;5053135;28;20897;-69
2024/02/13 07:45:18;;;;;;;4.60;1.67;;;;;;;5.34;100.00;101064.44;5053363;28;20539;-71
2024/02/13 07:47:44;;;;;;;2.57;1.23;;;;;;;5.41;100.00;101070.41;5053030;28;20755;-71
2024/02/13 07:50:14;;;;;;;8.30;1.87;;;;;;;5.47;100.00;101073.94;5053446;28;20448;-71
2024/02/13 07:52:41;;;;;;;4.30;1.20;;;;;;;5.50;100.00;101068.06;5052916;28;20516;-71
2024/02/13 07:55:08;;;;;;;5.30;1.53;;;;;;;5.51;100.00;101064.31;5053982;28;21037;-71
2024/02/13 07:57:35;;;;;;;2.50;1.33;;;;;;;5.57;100.00;101068.66;5057869;28;20485;-71
2024/02/13 08:00:03;;;;;;;2.60;1.10;;;;;;;5.59;100.00;101066.53;5057513;28;20437;-71
2024/02/13 08:02:30;;;;;;;3.87;2.10;;;;;;;5.62;100.00;101070.56;5057386;28;20494;-71
2024/02/13 08:04:56;;;;;;;2.83;1.57;;;;;;;5.65;100.00;101070.06;5057457;28;20481;-71
2024/02/13 08:07:27;;;;;;;3.70;1.30;;;;;;;5.63;100.00;101083.78;5057331;28;20433;-71
2024/02/13 08:09:54;;;;;;;5.37;2.60;;;;;;;5.70;100.00;101086.25;5057696;28;20422;-71
2024/02/13 08:12:21;;;;;;;3.20;1.77;;;;;;;5.77;100.00;101078.78;5056984;28;21000;-71
2024/02/13 08:14:47;;;;;;;4.80;1.73;;;;;;;5.83;100.00;101085.81;5057236;28;20488;-71
2024/02/13 08:17:14;;;;;;;4.63;1.80;;;;;;;5.90;100.00;101083.72;5057198;28;20488;-71
2024/02/13 08:19:41;;;;;;;5.67;1.90;;;;;;;5.97;100.00;101083.53;5057114;28;20437;-71
2024/02/13 08:22:08;;;;;;;4.83;2.60;;;;;;;6.00;100.00;101089.19;5057360;28;20830;-72
2024/02/13 08:24:37;;;;;;;3.10;2.00;;;;;;;6.06;100.00;101092.72;5057472;28;20834;-71
2024/02/13 08:27:05;;;;;;;2.47;1.37;;;;;;;6.06;100.00;101096.25;5056697;28;20934;-71
2024/02/13 08:29:31;;;;;;;3.00;1.60;;;;;;;6.06;100.00;101087.34;5056910;28;20481;-71
2024/02/13 08:31:58;;;;;;;4.87;2.13;;;;;;;6.16;100.00;101089.31;5056846;28;20540;-71
2024/02/13 08:34:25;;;;;;;3.83;2.10;;;;;;;6.22;100.00;101094.47;5057245;28;20533;-71
2024/02/13 08:36:53;;;;;;;2.60;1.20;;;;;;;6.24;100.00;101094.19;5056707;28;20520;-71
2024/02/13 08:39:20;;;;;;;8.30;2.20;;;;;;;6.31;100.00;101100.97;5056764;28;20537;-71
2024/02/13 08:41:48;;;;;;;4.33;2.13;;;;;;;6.41;100.00;101104.78;5056597;28;20465;-71
2024/02/13 08:44:16;;;;;;;3.83;1.90;;;;;;;6.44;100.00;101104.28;5057044;28;20533;-71
2024/02/13 08:46:42;;;;;;;5.33;2.30;;;;;;;6.52;100.00;101106.50;5056906;28;20449;-71
2024/02/13 08:49:09;;;;;;;3.10;1.70;;;;;;;6.53;100.00;101108.91;5056536;28;20457;-71
2024/02/13 08:51:36;;;;;;;3.90;2.03;;;;;;;6.61;100.00;101109.50;5056710;28;20458;-71
2024/02/13 08:54:02;;;;;;;4.93;2.90;;;;;;;6.58;100.00;101105.44;5056964;28;20495;-71
2024/02/13 08:56:29;;;;;;;3.67;1.90;;;;;;;6.52;100.00;101114.56;5056022;28;20863;-71
2024/02/13 08:58:58;;;;;;;4.73;2.47;;;;;;;6.51;100.00;101111.06;5056146;28;20500;-71
2024/02/13 09:01:25;;;;;;;5.13;2.27;;;;;;;6.57;100.00;101114.59;5056340;28;20505;-71
2024/02/13 09:03:52;;;;;;;8.50;2.80;;;;;;;6.57;100.00;101119.97;5056587;28;20527;-71
2024/02/13 09:06:19;;;;;;;4.23;2.17;;;;;;;6.54;100.00;101115.91;5055451;28;20797;-71
2024/02/13 09:08:46;;;;;;;4.27;2.30;;;;;;;6.65;100.00;101118.66;5056234;28;20934;-71
2024/02/13 09:11:13;;;;;;;3.60;1.93;;;;;;;6.69;100.00;101117.88;5056234;28;20558;-72
2024/02/13 09:13:39;;;;;;;10.60;2.33;;;;;;;6.73;100.00;101116.28;5056755;28;20823;-71
2024/02/13 09:16:08;;;;;;;6.10;1.90;;;;;;;6.74;100.00;101109.81;5056401;28;20513;-71
2024/02/13 09:18:35;;;;;;;6.43;2.57;;;;;;;6.75;100.00;101124.91;5056359;28;20430;-71
2024/02/13 09:21:03;;;;;;;4.40;2.20;;;;;;;6.79;100.00;101133.28;5056020;28;20478;-71
2024/02/13 09:23:30;;;;;;;4.63;2.10;;;;;;;6.78;100.00;101128.97;5055931;28;20466;-71
2024/02/13 09:25:57;;;;;;;5.63;2.53;;;;;;;6.81;100.00;101129.22;5056316;28;20434;-72
2024/02/13 09:28:23;;;;;;;7.63;3.07;;;;;;;6.88;100.00;101136.28;5055860;28;20525;-71
2024/02/13 09:30:50;;;;;;;4.57;2.37;;;;;;;6.98;100.00;101141.69;5055552;28;20952;-71
2024/02/13 09:33:20;;;;;;;5.60;2.10;;;;;;;7.06;99.83;101141.19;5055713;28;20896;-72
2024/02/13 09:35:50;;;;;;;4.53;2.10;;;;;;;7.11;98.23;101135.81;5056089;28;20438;-72
2024/02/13 09:38:16;;;;;;;7.73;2.37;;;;;;;7.17;98.17;101150.09;5056246;28;20446;-72
2024/02/13 09:40:43;;;;;;;4.30;1.70;;;;;;;7.30;98.05;101158.53;5055415;28;20518;-72
2024/02/13 09:43:11;;;;;;;7.07;2.70;;;;;;;7.43;97.44;101153.69;5055803;28;20537;-71
2024/02/13 09:45:40;;;;;;;5.40;2.73;;;;;;;7.51;97.04;101155.88;5055557;28;20591;-71
2024/02/13 09:48:16;;;;;;;6.33;2.80;;;;;;;7.46;96.22;101151.28;5055655;28;20451;-71
2024/02/13 09:50:44;;;;;;;4.67;2.70;;;;;;;7.54;94.88;101163.44;5055497;28;20953;-71
2024/02/13 09:53:19;;;;;;;6.63;3.00;;;;;;;7.51;95.09;101172.03;5055350;28;20476;-72
2024/02/13 09:55:46;;;;;;;6.27;2.97;;;;;;;7.44;94.45;101166.13;5055345;28;20418;-71
2024/02/13 09:58:14;;;;;;;3.80;2.27;;;;;;;7.44;93.98;101168.81;5055337;28;20442;-71
2024/02/13 10:00:42;;;;;;;4.20;1.60;;;;;;;7.53;94.82;101175.31;5055606;28;20438;-71
2024/02/13 10:03:08;;;;;;;7.33;3.37;;;;;;;7.70;93.03;101175.88;5054808;28;20461;-71
2024/02/13 10:05:35;;;;;;;4.30;1.67;;;;;;;7.70;92.43;101173.19;5055443;28;20529;-71
2024/02/13 10:08:05;;;;;;;4.33;1.83;;;;;;;7.73;91.17;101178.03;5055234;28;20442;-71
2024/02/13 10:10:31;;;;;;;4.67;2.70;;;;;;;7.76;91.54;101169.41;5054829;28;20458;-71
2024/02/13 10:13:00;;;;;;;5.13;2.30;;;;;;;7.78;91.77;101175.34;5055185;28;20462;-71
2024/02/13 10:15:39;;;;;;;5.53;2.33;;;;;;;7.91;93.09;101182.09;5054968;28;20541;-71
2024/02/13 10:18:08;;;;;;;4.50;2.33;;;;;;;8.06;92.70;101178.63;5054321;28;20469;-71
2024/02/13 10:20:37;;;;;;;11.30;2.43;;;;;;;8.11;89.80;101185.91;5055192;28;20769;-71
2024/02/13 10:23:05;;;;;;;4.20;2.03;;;;;;;8.17;88.86;101182.13;5054669;28;20462;-71
2024/02/13 10:25:33;;;;;;;3.30;1.57;;;;;;;8.23;89.32;101184.53;5054701;28;20478;-71
2024/02/13 10:28:01;;;;;;;5.10;1.80;;;;;;;8.33;89.95;101183.75;5054265;28;20984;-71
2024/02/13 10:30:29;;;;;;;10.07;2.43;;;;;;;8.42;89.40;101181.34;5054624;28;20446;-74
2024/02/13 10:32:59;;;;;;;6.83;3.00;;;;;;;8.51;89.05;101187.78;5054488;28;20545;-71
2024/02/13 10:35:29;;;;;;;2.93;1.30;;;;;;;8.55;87.90;101200.47;5054913;28;20469;-71
2024/02/13 10:37:56;;;;;;;3.23;1.40;;;;;;;8.50;85.39;101200.50;5052984;28;20486;-71
2024/02/13 10:40:26;;;;;;;3.23;1.60;;;;;;;8.44;85.33;101198.06;5054546;28;20434;-68
2024/02/13 10:42:54;;;;;;;4.60;2.50;;;;;;;8.49;85.37;101195.34;5054478;28;20954;-70
2024/02/13 10:45:23;;;;;;;3.00;1.30;;;;;;;8.54;83.97;101200.72;5054356;28;20438;-70
2024/02/13 10:47:51;;;;;;;4.03;1.23;;;;;;;8.52;82.95;101198.31;5054616;28;20439;-70
2024/02/13 10:50:19;;;;;;;3.00;1.10;;;;;;;8.53;84.97;101199.13;5054875;28;20442;-70
2024/02/13 10:52:46;;;;;;;3.33;1.30;;;;;;;8.66;85.70;101203.97;5054566;28;20545;-70
2024/02/13 10:55:18;;;;;;;3.93;1.47;;;;;;;8.67;83.67;101212.88;5054123;28;20444;-70
2024/02/13 10:57:49;;;;;;;3.13;1.40;;;;;;;8.72;82.11;101211.00;5054516;28;20480;-70
2024/02/13 11:00:19;;;;;;;3.70;1.60;;;;;;;8.69;82.48;101214.22;5053795;28;20913;-70
2024/02/13 11:02:48;;;;;;;2.97;1.60;;;;;;;8.74;82.10;101210.72;5053989;28;20469;-70
2024/02/13 11:05:16;;;;;;;4.63;1.50;;;;;;;8.72;80.42;101213.69;5054055;28;20939;-70
2024/02/13 11:07:45;;;;;;;3.90;1.20;;;;;;;8.73;80.89;101209.91;5054967;28;20450;-70
2024/02/13 11:10:12;;;;;;;3.40;1.70;;;;;;;8.71;80.01;101212.06;5053797;28;20450;-70
2024/02/13 11:12:40;;;;;;;3.30;1.37;;;;;;;8.58;80.31;101208.00;5054122;28;20458;-70
2024/02/13 11:15:10;;;;;;;6.23;2.60;;;;;;;8.74;80.32;101210.72;5053886;28;20434;-70
2024/02/13 11:17:47;;;;;;;3.00;1.70;;;;;;;8.84;80.09;101206.09;5054158;28;20458;-70
2024/02/13 11:20:15;;;;;;;5.60;1.27;;;;;;;8.99;80.08;101207.16;5053809;28;20879;-70
2024/02/13 11:22:51;;;;;;;2.60;1.13;;;;;;;9.14;78.18;101204.38;5053617;28;20461;-70
2024/02/13 11:25:18;;;;;;;3.60;1.20;;;;;;;9.26;77.72;101202.19;5053626;28;20461;-70
2024/02/13 11:27:47;;;;;;;2.70;1.50;;;;;;;9.42;76.39;101211.00;5053721;28;20495;-70
2024/02/13 11:30:24;;;;;;;2.50;1.13;;;;;;;9.44;76.17;101202.66;5053149;28;20895;-70